Time;durP1;ratioP1;P1;durP2;ratioP2;P2;SDS_P1;SDS_P2;PMS_P1;PMS_P2;Temp;Humidity;BMP_temperature;BMP_pressure;BME280_temperature;BME280_humidity;BME280_pressure;Samples;Min_cycle;Max_cycle;Signal;HPM_P1;HPM_P2
2023/04/29 00:01:43;;;;;;;21.60;14.90;;;;;;;7.31;53.78;100057.77;130928;1267;107926;-76
2023/04/29 00:04:49;;;;;;;20.60;14.20;;;;;;;7.29;53.73;100062.88;130743;1268;194789;-77
2023/04/29 00:07:54;;;;;;;21.30;14.40;;;;;;;7.26;54.18;100059.59;130928;1254;107535;-77
2023/04/29 00:11:00;;;;;;;20.90;14.40;;;;;;;7.24;54.05;100061.36;130926;1256;107630;-76
2023/04/29 00:14:05;;;;;;;20.20;13.60;;;;;;;7.24;54.12;100061.33;131051;1254;106823;-77
2023/04/29 00:17:11;;;;;;;20.50;13.50;;;;;;;7.25;54.11;100061.58;130907;1258;107253;-77
2023/04/29 00:20:17;;;;;;;19.50;14.10;;;;;;;7.26;54.27;100058.53;130978;1254;106653;-77
2023/04/29 00:23:23;;;;;;;20.00;13.60;;;;;;;7.26;54.38;100058.00;130965;1257;105375;-77
2023/04/29 00:26:28;;;;;;;20.10;13.80;;;;;;;7.25;54.29;100057.71;130948;1253;107524;-75
2023/04/29 00:29:34;;;;;;;19.50;12.90;;;;;;;7.25;54.63;100060.55;130959;1254;107336;-74
2023/04/29 00:32:39;;;;;;;19.90;13.40;;;;;;;7.25;54.98;100057.33;131034;1256;107260;-74
2023/04/29 00:35:45;;;;;;;19.60;13.00;;;;;;;7.24;54.59;100056.06;131056;1254;106264;-75
2023/04/29 00:38:51;;;;;;;19.10;13.80;;;;;;;7.24;54.92;100057.67;130898;1267;107187;-77
2023/04/29 00:41:57;;;;;;;19.30;14.00;;;;;;;7.24;55.11;100058.49;130798;1256;107539;-76
2023/04/29 00:45:02;;;;;;;18.10;12.60;;;;;;;7.23;54.99;100058.55;130664;1256;107572;-76
2023/04/29 00:48:08;;;;;;;21.60;14.30;;;;;;;7.22;55.25;100056.06;130850;1253;107530;-76
2023/04/29 00:51:15;;;;;;;20.10;13.90;;;;;;;7.21;55.21;100053.10;130780;1257;107430;-77
2023/04/29 00:54:22;;;;;;;18.50;13.90;;;;;;;7.21;55.43;100057.24;130837;1266;107245;-76
2023/04/29 00:57:28;;;;;;;21.30;13.80;;;;;;;7.19;55.39;100051.52;130837;1257;107509;-77
2023/04/29 01:00:34;;;;;;;20.00;12.80;;;;;;;7.17;55.55;100053.62;130894;1252;107398;-77
2023/04/29 01:03:40;;;;;;;19.30;12.90;;;;;;;7.15;55.87;100048.18;130927;1269;107540;-77
2023/04/29 01:06:56;;;;;;;20.60;13.70;;;;;;;7.13;56.05;100045.89;130774;1269;107522;-77
2023/04/29 01:10:09;;;;;;;18.60;12.50;;;;;;;7.09;56.13;100042.69;130981;1254;107406;-77
2023/04/29 01:13:26;;;;;;;18.60;12.70;;;;;;;7.07;56.32;100043.48;130764;1257;107600;-77
2023/04/29 01:16:37;;;;;;;20.30;13.80;;;;;;;7.09;56.34;100040.17;130989;1254;106242;-77
2023/04/29 01:19:50;;;;;;;18.40;13.30;;;;;;;7.11;56.23;100040.04;130930;1254;107357;-75
2023/04/29 01:22:55;;;;;;;20.00;14.00;;;;;;;7.12;56.13;100039.23;131453;1253;107541;-76
2023/04/29 01:26:01;;;;;;;20.30;14.10;;;;;;;7.13;56.12;100037.89;132731;1253;107451;-76
2023/04/29 01:29:40;;;;;;;21.40;14.50;;;;;;;7.16;56.07;100034.30;130924;1253;108133;-76
2023/04/29 01:32:59;;;;;;;20.40;13.60;;;;;;;7.17;56.25;100033.35;130905;1267;107187;-77
2023/04/29 01:36:14;;;;;;;20.70;14.40;;;;;;;7.19;56.16;100035.30;130888;1254;107454;-77
2023/04/29 01:39:27;;;;;;;18.60;13.70;;;;;;;7.21;56.39;100032.27;130878;1254;106574;-77
2023/04/29 01:42:48;;;;;;;19.60;13.60;;;;;;;7.24;56.38;100033.59;130808;1254;107389;-77
2023/04/29 01:45:56;;;;;;;;;;;;;;;7.25;56.51;100034.31;130889;1256;107468;-77
2023/04/29 01:49:02;;;;;;;18.90;12.70;;;;;;;7.29;56.35;100032.41;130992;1253;107418;-76
2023/04/29 01:52:07;;;;;;;19.80;13.70;;;;;;;7.30;56.21;100033.54;130916;1270;107555;-77
2023/04/29 01:55:13;;;;;;;18.90;12.80;;;;;;;7.31;56.37;100030.60;130946;1256;107364;-76
2023/04/29 01:58:27;;;;;;;15.30;12.20;;;;;;;7.32;56.37;100029.48;130823;1259;107327;-76
2023/04/29 02:01:44;;;;;;;19.60;12.60;;;;;;;7.31;56.38;100024.42;130864;1256;107606;-76
2023/04/29 02:04:50;;;;;;;17.80;12.40;;;;;;;7.31;56.37;100028.88;130785;1257;107451;-75
2023/04/29 02:07:56;;;;;;;20.80;12.90;;;;;;;7.30;56.24;100029.50;130845;1254;107387;-76
2023/04/29 02:11:02;;;;;;;17.10;12.70;;;;;;;7.30;56.24;100025.64;130861;1254;107479;-77
2023/04/29 02:14:16;;;;;;;16.80;12.20;;;;;;;7.30;56.35;100022.11;130803;1265;107359;-76
2023/04/29 02:17:22;;;;;;;16.70;11.90;;;;;;;7.30;56.09;100020.27;130701;1254;107432;-76
2023/04/29 02:20:27;;;;;;;17.40;11.70;;;;;;;7.29;56.33;100018.45;130698;1266;107276;-77
2023/04/29 02:23:34;;;;;;;17.10;11.60;;;;;;;7.27;56.32;100017.39;130944;1256;106389;-77
2023/04/29 02:26:40;;;;;;;19.00;11.50;;;;;;;7.24;56.25;100013.36;130938;1253;107648;-77
2023/04/29 02:29:45;;;;;;;14.90;11.10;;;;;;;7.23;56.35;100014.06;130898;1254;107505;-77
2023/04/29 02:32:51;;;;;;;17.00;11.40;;;;;;;7.20;56.57;100018.33;130724;1254;107450;-77
2023/04/29 02:35:58;;;;;;;15.10;11.10;;;;;;;7.19;56.41;100021.62;130732;1261;107536;-77
2023/04/29 02:39:04;;;;;;;15.10;10.40;;;;;;;7.18;56.63;100014.33;131015;1256;107429;-77
2023/04/29 02:42:09;;;;;;;15.60;10.70;;;;;;;7.16;56.26;100012.31;131006;1254;107258;-74
2023/04/29 02:45:15;;;;;;;15.40;10.10;;;;;;;7.16;56.31;100009.71;130946;1254;107350;-75
2023/04/29 02:48:21;;;;;;;15.30;10.60;;;;;;;7.12;56.40;100009.34;130880;1254;107521;-75
2023/04/29 02:51:26;;;;;;;15.30;10.50;;;;;;;7.09;56.36;100010.65;130582;1257;107214;-75
2023/04/29 02:54:32;;;;;;;15.20;10.10;;;;;;;7.06;56.59;100008.44;130804;1269;107409;-75
2023/04/29 02:57:38;;;;;;;15.00;10.80;;;;;;;7.03;56.54;100008.69;130594;1269;107486;-76
2023/04/29 03:00:43;;;;;;;15.40;10.60;;;;;;;7.02;56.56;100004.73;130603;1254;107408;-77
2023/04/29 03:03:49;;;;;;;16.00;10.90;;;;;;;6.98;56.69;100006.83;130664;1253;107546;-77
2023/04/29 03:06:56;;;;;;;14.60;10.20;;;;;;;6.95;56.58;100006.98;130642;1254;107416;-77
2023/04/29 03:10:04;;;;;;;15.80;10.40;;;;;;;6.94;56.89;100005.64;130666;1253;107373;-77
2023/04/29 03:13:11;;;;;;;13.00;9.60;;;;;;;6.92;56.78;100002.63;130602;1254;107349;-76
2023/04/29 03:16:17;;;;;;;15.20;9.80;;;;;;;6.89;56.77;100001.78;130671;1254;107329;-77
2023/04/29 03:19:23;;;;;;;14.40;10.10;;;;;;;6.85;56.90;100000.77;130696;1253;107361;-78
2023/04/29 03:22:29;;;;;;;14.20;9.50;;;;;;;6.78;57.03;100001.00;130886;1254;107315;-77
2023/04/29 03:25:35;;;;;;;14.10;10.10;;;;;;;6.74;57.01;100002.60;130661;1270;107258;-77
2023/04/29 03:28:41;;;;;;;14.30;9.80;;;;;;;6.72;56.90;100005.98;130585;1259;106256;-77
2023/04/29 03:31:47;;;;;;;15.20;9.90;;;;;;;6.72;56.78;100007.95;130642;1259;107500;-77
2023/04/29 03:34:53;;;;;;;13.40;9.80;;;;;;;6.71;57.26;100010.45;130634;1253;107388;-76
2023/04/29 03:38:05;;;;;;;15.00;10.10;;;;;;;6.70;57.26;100007.70;130710;1253;107345;-75
2023/04/29 03:41:12;;;;;;;14.50;10.40;;;;;;;6.72;57.71;100005.30;130632;1254;107466;-76
2023/04/29 03:44:17;;;;;;;15.40;10.60;;;;;;;6.74;57.75;100006.54;130605;1254;107521;-77
2023/04/29 03:47:23;;;;;;;13.60;9.80;;;;;;;6.75;57.70;100004.84;130573;1259;106628;-76
2023/04/29 03:50:29;;;;;;;14.00;9.70;;;;;;;6.79;58.02;100005.52;130716;1256;107512;-77
2023/04/29 03:53:35;;;;;;;15.90;10.40;;;;;;;6.85;58.10;100002.86;130680;1253;107403;-75
2023/04/29 03:56:42;;;;;;;13.70;9.90;;;;;;;6.91;57.88;100003.27;130652;1254;107419;-76
2023/04/29 03:59:49;;;;;;;12.90;9.60;;;;;;;6.96;58.26;100002.25;130647;1269;108707;-77
2023/04/29 04:02:54;;;;;;;13.70;9.70;;;;;;;7.02;58.14;99999.10;130775;1253;107457;-76
2023/04/29 04:06:00;;;;;;;14.30;9.80;;;;;;;7.09;58.29;100000.60;130719;1255;107403;-77
2023/04/29 04:09:06;;;;;;;12.40;9.10;;;;;;;7.13;58.14;100002.75;130739;1258;107224;-77
2023/04/29 04:12:12;;;;;;;13.70;9.20;;;;;;;7.17;58.48;100005.73;130746;1254;107366;-77
2023/04/29 04:15:18;;;;;;;13.90;9.50;;;;;;;7.22;58.45;100002.42;130623;1254;107713;-77
2023/04/29 04:18:24;;;;;;;13.90;9.40;;;;;;;7.27;58.65;100002.89;130627;1269;107212;-77
2023/04/29 04:21:30;;;;;;;14.10;10.30;;;;;;;7.32;58.52;100003.98;130645;1254;107388;-78
2023/04/29 04:24:43;;;;;;;16.00;10.80;;;;;;;7.37;58.74;99999.88;130661;1254;107358;-77
2023/04/29 04:27:49;;;;;;;18.80;11.60;;;;;;;7.42;58.67;99997.73;130711;1253;107356;-77
2023/04/29 04:31:04;;;;;;;15.10;10.20;;;;;;;7.51;58.86;99997.34;130691;1256;107360;-76
2023/04/29 04:34:10;;;;;;;14.20;10.60;;;;;;;7.62;59.08;99997.26;131032;1254;107362;-76
2023/04/29 04:37:16;;;;;;;14.30;10.00;;;;;;;7.75;59.00;99993.87;130879;1258;106530;-76
2023/04/29 04:40:23;;;;;;;15.90;9.70;;;;;;;7.89;58.77;99990.13;130764;1254;107493;-76
2023/04/29 04:43:48;;;;;;;13.40;9.80;;;;;;;8.05;58.69;99992.06;130863;1254;107462;-73
2023/04/29 04:47:01;;;;;;;14.60;9.60;;;;;;;8.19;58.44;99990.31;130733;1254;108502;-74
2023/04/29 04:50:45;;;;;;;12.10;8.80;;;;;;;8.41;58.59;99984.91;130134;1264;106267;-73
2023/04/29 04:53:50;;;;;;;12.90;9.30;;;;;;;8.61;58.40;99982.46;130245;1264;107411;-73
2023/04/29 04:57:04;;;;;;;12.00;9.00;;;;;;;8.79;58.14;99977.83;130676;1254;106411;-74
2023/04/29 05:00:12;;;;;;;13.20;9.40;;;;;;;8.96;58.13;99977.35;130739;1259;107351;-73
2023/04/29 05:03:18;;;;;;;11.10;8.40;;;;;;;9.14;58.06;99977.08;130739;1259;107556;-74
2023/04/29 05:06:23;;;;;;;12.80;8.80;;;;;;;9.30;57.92;99976.84;130861;1253;107518;-74
2023/04/29 05:09:29;;;;;;;13.60;8.60;;;;;;;9.48;57.54;99978.83;130817;1254;107236;-74
2023/04/29 05:12:35;;;;;;;14.20;8.80;;;;;;;9.64;57.34;99983.10;130723;1254;107486;-74
2023/04/29 05:15:41;;;;;;;13.70;8.40;;;;;;;9.78;57.25;99972.66;130843;1255;106390;-74
2023/04/29 05:18:47;;;;;;;14.30;8.50;;;;;;;9.87;57.51;99973.02;130843;1254;107388;-74
2023/04/29 05:21:53;;;;;;;12.20;8.10;;;;;;;9.94;57.22;99972.41;130871;1254;107352;-74
2023/04/29 05:25:02;;;;;;;10.80;8.40;;;;;;;10.03;57.21;99964.41;130841;1257;107479;-75
2023/04/29 05:28:08;;;;;;;11.30;8.10;;;;;;;10.08;57.08;99961.41;130738;1256;107549;-75
2023/04/29 05:31:15;;;;;;;11.60;8.00;;;;;;;10.15;57.15;99963.21;130712;1253;107393;-74
2023/04/29 05:34:21;;;;;;;11.80;7.50;;;;;;;10.19;56.71;99963.30;130780;1259;107488;-73
2023/04/29 05:37:29;;;;;;;12.30;8.10;;;;;;;10.24;56.87;99965.29;130732;1259;107486;-74
2023/04/29 05:40:43;;;;;;;11.10;7.70;;;;;;;10.33;56.63;99962.84;130679;1254;107225;-74
2023/04/29 05:44:15;;;;;;;14.00;8.30;;;;;;;10.44;56.78;99962.40;130799;1256;107533;-74
2023/04/29 05:47:20;;;;;;;12.00;7.80;;;;;;;10.49;56.44;99963.42;130702;1256;107559;-74
2023/04/29 05:50:26;;;;;;;11.30;7.60;;;;;;;10.57;56.38;99967.02;130643;1258;107574;-75
2023/04/29 05:53:32;;;;;;;11.60;8.00;;;;;;;10.70;56.60;99961.80;130803;1254;107362;-72
2023/04/29 05:56:38;;;;;;;11.00;8.30;;;;;;;10.84;56.82;99960.48;130738;1254;107228;-74
2023/04/29 05:59:43;;;;;;;11.90;7.60;;;;;;;10.99;56.32;99960.48;130726;1254;107439;-75
2023/04/29 06:02:49;;;;;;;10.20;7.10;;;;;;;11.15;56.15;99958.53;130697;1256;107469;-74
2023/04/29 06:05:55;;;;;;;9.70;7.10;;;;;;;11.26;55.74;99957.02;130768;1254;107555;-74
2023/04/29 06:09:32;;;;;;;11.80;7.40;;;;;;;11.40;56.12;99954.42;130472;1262;106687;-74
2023/04/29 06:12:41;;;;;;;9.60;7.30;;;;;;;11.48;55.96;99954.30;130871;1254;107467;-74
2023/04/29 06:15:46;;;;;;;9.40;6.80;;;;;;;11.56;55.58;99948.23;130655;1270;107350;-73
2023/04/29 06:18:53;;;;;;;8.10;6.50;;;;;;;11.68;55.65;99950.15;130710;1257;107948;-74
2023/04/29 06:21:59;;;;;;;8.30;6.70;;;;;;;11.81;55.09;99950.11;130709;1256;107351;-75
2023/04/29 06:25:06;;;;;;;8.60;6.50;;;;;;;11.94;55.12;99950.99;130654;1257;107516;-75
2023/04/29 06:28:23;;;;;;;9.80;6.30;;;;;;;12.08;55.26;99948.39;130691;1257;107447;-74
2023/04/29 06:31:29;;;;;;;10.60;7.00;;;;;;;12.15;54.85;99949.96;130699;1257;107540;-76
2023/04/29 06:34:38;;;;;;;8.50;6.90;;;;;;;12.15;54.67;99952.80;130700;1253;107372;-79
2023/04/29 06:38:02;;;;;;;9.10;6.50;;;;;;;12.17;54.96;99949.71;130698;1258;107498;-76
2023/04/29 06:41:13;;;;;;;10.60;6.80;;;;;;;12.31;54.96;99948.54;130563;1257;107427;-75
2023/04/29 06:44:45;;;;;;;12.20;6.90;;;;;;;12.34;54.63;99946.96;130434;1276;107558;-77
2023/04/29 06:48:15;;;;;;;9.60;7.10;;;;;;;12.42;54.73;99944.05;130538;1257;107442;-77
2023/04/29 06:51:26;;;;;;;9.00;7.00;;;;;;;12.55;54.73;99940.37;130700;1254;107385;-77
2023/04/29 06:54:32;;;;;;;8.90;6.50;;;;;;;12.68;54.62;99941.15;130715;1254;107522;-77
2023/04/29 06:57:37;;;;;;;8.50;6.80;;;;;;;12.83;54.52;99934.07;130670;1256;107511;-77
2023/04/29 07:00:46;;;;;;;10.00;6.70;;;;;;;12.97;54.40;99930.34;130744;1254;107520;-76
2023/04/29 07:03:51;;;;;;;8.30;6.50;;;;;;;13.11;54.23;99927.34;130644;1259;107595;-80
2023/04/29 07:06:58;;;;;;;8.90;6.40;;;;;;;13.24;54.04;99927.26;130820;1254;107394;-78
2023/04/29 07:10:04;;;;;;;8.60;6.20;;;;;;;13.35;53.99;99928.67;130723;1254;107225;-77
2023/04/29 07:13:10;;;;;;;7.00;5.90;;;;;;;13.40;53.87;99926.14;130909;1256;107466;-85
2023/04/29 07:16:20;;;;;;;8.50;6.00;;;;;;;13.43;53.86;99929.52;130885;1256;107538;-78
2023/04/29 07:19:26;;;;;;;8.90;6.10;;;;;;;13.52;53.87;99926.20;130680;1259;106865;-82
2023/04/29 07:22:31;;;;;;;67.90;30.80;;;;;;;13.56;53.38;99923.88;130743;1255;107461;-78
2023/04/29 07:25:37;;;;;;;27.80;13.60;;;;;;;13.65;53.60;99919.99;130671;1259;107497;-78
2023/04/29 07:28:44;;;;;;;36.30;17.20;;;;;;;13.76;53.37;99920.83;130676;1254;107235;-79
2023/04/29 07:31:49;;;;;;;16.90;9.30;;;;;;;13.87;53.57;99920.45;130702;1256;107496;-79
2023/04/29 07:34:56;;;;;;;11.80;6.70;;;;;;;13.96;53.02;99922.41;130639;1254;107412;-79
2023/04/29 07:38:01;;;;;;;9.10;6.50;;;;;;;13.99;52.72;99920.64;130605;1259;106433;-79
2023/04/29 07:41:09;;;;;;;10.00;7.40;;;;;;;14.02;52.96;99920.58;130882;1256;106444;-78
2023/04/29 07:44:15;;;;;;;9.50;5.80;;;;;;;14.04;52.75;99916.75;130689;1260;107515;-79
2023/04/29 07:47:20;;;;;;;8.40;6.50;;;;;;;14.08;52.83;99918.55;130770;1257;107631;-79
2023/04/29 07:50:26;;;;;;;10.30;6.20;;;;;;;14.11;52.56;99918.84;130567;1259;107530;-78
2023/04/29 07:53:32;;;;;;;9.00;6.10;;;;;;;14.16;52.59;99916.80;130663;1254;107369;-78
2023/04/29 07:56:38;;;;;;;9.50;6.40;;;;;;;14.19;52.41;99924.31;130727;1261;107525;-78
2023/04/29 07:59:43;;;;;;;8.10;5.80;;;;;;;14.19;52.27;99925.52;130664;1254;107562;-78
2023/04/29 08:02:52;;;;;;;8.80;6.80;;;;;;;14.25;52.45;99925.59;130721;1254;107237;-79
2023/04/29 08:06:02;;;;;;;9.70;6.80;;;;;;;14.28;52.57;99929.09;130747;1256;107422;-78
2023/04/29 08:09:08;;;;;;;9.60;6.90;;;;;;;14.32;52.54;99928.47;130600;1259;107499;-78
2023/04/29 08:12:14;;;;;;;10.50;6.80;;;;;;;14.40;52.52;99926.67;130808;1257;107911;-78
2023/04/29 08:15:19;;;;;;;11.10;6.90;;;;;;;14.44;52.23;99928.80;130849;1256;107495;-78
2023/04/29 08:18:25;;;;;;;10.10;6.40;;;;;;;14.51;52.20;99930.61;130759;1259;107252;-81
2023/04/29 08:21:31;;;;;;;9.70;7.20;;;;;;;14.58;52.50;99925.89;130719;1256;107636;-78
2023/04/29 08:24:36;;;;;;;10.30;8.10;;;;;;;14.66;52.38;99921.99;130721;1257;106263;-78
2023/04/29 08:27:44;;;;;;;9.60;6.70;;;;;;;14.79;52.54;99921.23;130760;1256;106797;-81
2023/04/29 08:30:50;;;;;;;10.60;7.10;;;;;;;14.90;52.41;99920.67;130841;1254;107257;-78
2023/04/29 08:33:59;;;;;;;9.10;7.10;;;;;;;15.00;51.63;99915.44;130775;1267;107406;-83
2023/04/29 08:37:07;;;;;;;11.80;8.10;;;;;;;15.08;51.56;99916.89;130602;1256;107394;-79
2023/04/29 08:40:14;;;;;;;8.00;6.70;;;;;;;15.16;51.31;99919.86;130753;1256;107532;-79
2023/04/29 08:43:21;;;;;;;9.00;6.60;;;;;;;15.18;51.56;99917.02;130783;1256;107506;-79
2023/04/29 08:46:27;;;;;;;12.10;7.90;;;;;;;15.30;51.25;99913.95;130786;1254;107457;-79
2023/04/29 08:49:33;;;;;;;10.80;7.10;;;;;;;15.42;50.99;99909.98;130782;1256;107457;-79
2023/04/29 08:52:53;;;;;;;9.40;6.70;;;;;;;15.48;50.15;99909.08;130766;1256;107533;-79
2023/04/29 08:56:20;;;;;;;9.80;7.10;;;;;;;15.47;50.82;99902.45;130531;1259;108004;-79
2023/04/29 08:59:39;;;;;;;11.90;6.80;;;;;;;15.51;50.56;99909.55;130675;1254;107027;-81
2023/04/29 09:02:55;;;;;;;15.70;8.90;;;;;;;15.54;50.48;99905.82;130746;1256;107356;-79
2023/04/29 09:06:10;;;;;;;11.10;7.60;;;;;;;15.56;50.22;99903.06;130885;1257;107979;-79
2023/04/29 09:09:16;;;;;;;11.30;7.20;;;;;;;15.50;49.92;99906.98;130941;1256;109298;-79
2023/04/29 09:12:22;;;;;;;20.20;11.70;;;;;;;15.51;50.14;99911.54;130811;1256;107507;-79
2023/04/29 09:15:27;;;;;;;12.10;7.70;;;;;;;15.70;50.26;99911.14;130737;1256;107560;-80
2023/04/29 09:18:48;;;;;;;9.10;6.80;;;;;;;15.98;50.10;99916.19;130797;1254;107426;-80
2023/04/29 09:22:01;;;;;;;9.50;7.10;;;;;;;16.21;50.08;99915.96;131115;1254;108725;-80
2023/04/29 09:25:21;;;;;;;11.10;6.70;;;;;;;16.30;49.84;99909.22;131297;1253;108011;-78
2023/04/29 09:28:34;;;;;;;13.10;6.60;;;;;;;16.36;50.14;99908.88;131374;1253;107839;-78
2023/04/29 09:31:52;;;;;;;9.30;6.60;;;;;;;16.62;49.90;99909.54;131371;1252;106555;-80
2023/04/29 09:35:19;;;;;;;10.50;6.70;;;;;;;16.86;49.33;99911.02;131251;1253;107172;-81
2023/04/29 09:38:27;;;;;;;10.10;6.10;;;;;;;17.05;49.23;99909.24;131267;1251;107270;-80
2023/04/29 09:41:33;;;;;;;9.10;6.50;;;;;;;17.27;49.58;99905.60;131228;1253;107691;-79
2023/04/29 09:44:44;;;;;;;8.80;6.10;;;;;;;17.41;49.30;99905.00;131412;1252;107691;-80
2023/04/29 09:48:03;;;;;;;8.90;6.00;;;;;;;17.48;48.27;99904.34;131207;1252;107270;-80
2023/04/29 09:51:09;;;;;;;9.20;5.80;;;;;;;17.49;48.48;99908.00;131333;1253;107533;-80
2023/04/29 09:54:23;;;;;;;7.80;5.70;;;;;;;17.50;48.67;99910.31;131282;1253;106802;-80
2023/04/29 09:57:41;;;;;;;9.10;6.30;;;;;;;17.51;48.69;99907.98;131264;1251;107906;-80
2023/04/29 10:00:47;;;;;;;9.00;6.40;;;;;;;17.48;48.33;99913.30;131536;1253;107579;-80
2023/04/29 10:03:55;;;;;;;8.70;6.20;;;;;;;17.46;48.37;99906.28;131660;1251;107240;-81
2023/04/29 10:07:02;;;;;;;8.20;6.00;;;;;;;17.52;48.13;99903.05;131394;1253;106908;-79
2023/04/29 10:10:10;;;;;;;7.50;5.40;;;;;;;17.57;48.37;99901.10;131240;1252;107533;-81
2023/04/29 10:13:16;;;;;;;8.30;6.00;;;;;;;17.59;48.39;99901.48;131247;1252;107274;-81
2023/04/29 10:16:28;;;;;;;7.30;5.70;;;;;;;17.56;48.15;99896.17;131305;1251;108111;-78
2023/04/29 10:19:39;;;;;;;8.40;5.60;;;;;;;17.53;48.34;99889.02;131676;1249;107241;-79
2023/04/29 10:22:48;;;;;;;7.10;5.40;;;;;;;17.51;48.31;99886.74;131248;1251;107507;-79
2023/04/29 10:25:55;;;;;;;10.70;6.30;;;;;;;17.50;48.01;99888.23;133804;1251;107498;-79
2023/04/29 10:29:02;;;;;;;9.10;5.70;;;;;;;17.45;47.67;99886.53;131335;1254;107389;-81
2023/04/29 10:32:09;;;;;;;7.20;5.60;;;;;;;17.42;47.51;99887.86;131462;1253;105969;-78
2023/04/29 10:35:17;;;;;;;9.00;5.60;;;;;;;17.40;47.49;99884.63;131257;1253;107547;-78
2023/04/29 10:38:28;;;;;;;7.80;5.70;;;;;;;17.44;47.36;99883.91;131381;1251;107525;-81
2023/04/29 10:41:38;;;;;;;8.70;5.90;;;;;;;17.51;47.56;99875.82;131580;1251;107502;-81
2023/04/29 10:45:15;;;;;;;8.10;6.00;;;;;;;17.55;47.25;99881.77;131275;1253;108149;-78
2023/04/29 10:48:23;;;;;;;7.60;6.20;;;;;;;17.66;47.07;99874.28;131041;1253;107530;-80
2023/04/29 10:51:33;;;;;;;9.80;6.00;;;;;;;17.77;47.25;99873.35;131349;1251;107241;-80
2023/04/29 10:54:41;;;;;;;10.50;6.60;;;;;;;17.97;46.81;99866.55;131278;1251;107257;-81
2023/04/29 10:57:46;;;;;;;8.00;5.90;;;;;;;18.24;46.82;99864.39;131218;1266;107380;-80
2023/04/29 11:00:52;;;;;;;17.10;11.30;;;;;;;18.51;46.55;99861.96;131457;1251;107534;-80
2023/04/29 11:04:04;;;;;;;10.40;6.80;;;;;;;18.79;46.24;99859.52;131325;1253;106748;-80
2023/04/29 11:07:29;;;;;;;7.70;6.30;;;;;;;19.04;46.04;99860.41;131335;1251;107515;-80
2023/04/29 11:10:40;;;;;;;9.00;6.00;;;;;;;19.22;45.99;99855.86;131316;1253;107540;-83
2023/04/29 11:13:47;;;;;;;10.40;6.20;;;;;;;19.39;45.74;99844.26;131285;1254;107506;-83
2023/04/29 11:16:59;;;;;;;10.70;6.70;;;;;;;19.56;45.74;99849.10;131266;1254;106657;-81
2023/04/29 11:20:10;;;;;;;8.40;6.10;;;;;;;19.74;45.13;99841.30;131342;1251;107624;-78
2023/04/29 11:23:18;;;;;;;8.00;5.90;;;;;;;19.80;45.17;99845.99;131363;1254;107340;-78
2023/04/29 11:26:25;;;;;;;7.10;5.70;;;;;;;19.81;45.21;99842.27;131371;1251;107494;-80
2023/04/29 11:29:32;;;;;;;7.30;5.50;;;;;;;19.81;44.97;99849.70;131388;1251;107284;-79
2023/04/29 11:32:40;;;;;;;8.80;5.70;;;;;;;19.78;44.90;99843.90;131464;1254;107533;-80
2023/04/29 11:35:46;;;;;;;19.40;13.30;;;;;;;19.72;44.93;99844.11;131345;1254;106570;-79
2023/04/29 11:38:51;;;;;;;10.20;6.80;;;;;;;19.67;44.52;99839.72;131207;1253;108112;-79
2023/04/29 11:42:06;;;;;;;9.80;6.70;;;;;;;19.61;44.55;99835.02;131166;1254;106537;-79
2023/04/29 11:45:13;;;;;;;10.50;8.30;;;;;;;19.63;44.71;99835.30;131594;1254;107687;-79
2023/04/29 11:48:23;;;;;;;6.70;5.80;;;;;;;19.71;44.27;99832.53;131327;1254;107588;-78
2023/04/29 11:51:29;;;;;;;8.50;5.60;;;;;;;19.76;44.34;99834.29;131263;1253;107420;-77
2023/04/29 11:54:35;;;;;;;6.50;5.60;;;;;;;19.86;44.34;99832.48;131465;1261;107674;-77
2023/04/29 11:57:40;;;;;;;9.80;5.40;;;;;;;19.97;44.24;99829.56;131429;1248;107314;-79
2023/04/29 12:00:48;;;;;;;7.10;5.30;;;;;;;20.02;44.15;99824.67;131562;1253;108103;-77
2023/04/29 12:03:59;;;;;;;6.80;4.80;;;;;;;20.11;43.88;99815.78;131322;1253;179681;-78
2023/04/29 12:07:09;;;;;;;7.20;4.90;;;;;;;20.21;43.38;99820.09;131425;1249;107526;-79
2023/04/29 12:10:15;;;;;;;5.90;4.60;;;;;;;20.51;43.73;99820.13;131414;1252;106524;-80
2023/04/29 12:13:23;;;;;;;6.80;4.20;;;;;;;20.77;43.46;99813.79;131430;1253;107520;-79
2023/04/29 12:16:29;;;;;;;5.40;4.30;;;;;;;20.80;43.11;99813.91;131441;1257;107231;-77
2023/04/29 12:19:36;;;;;;;5.00;3.50;;;;;;;20.78;42.79;99821.04;131248;1253;107294;-77
2023/04/29 12:22:43;;;;;;;4.30;3.60;;;;;;;20.71;42.38;99814.70;131580;1261;107238;-78
2023/04/29 12:25:51;;;;;;;4.10;3.70;;;;;;;20.62;42.61;99820.91;131257;1253;107398;-77
2023/04/29 12:28:58;;;;;;;6.80;3.60;;;;;;;20.57;42.84;99823.63;131508;1254;107520;-80
2023/04/29 12:32:04;;;;;;;5.20;3.50;;;;;;;20.36;42.74;99820.19;131317;1248;107546;-79
2023/04/29 12:35:18;;;;;;;6.10;4.00;;;;;;;20.24;42.84;99817.88;131244;1253;107552;-79
2023/04/29 12:38:26;;;;;;;5.50;4.20;;;;;;;20.16;42.93;99819.61;131459;1253;107352;-79
2023/04/29 12:41:42;;;;;;;5.50;3.70;;;;;;;20.14;42.80;99817.38;131466;1256;107639;-79
2023/04/29 12:44:48;;;;;;;6.60;5.30;;;;;;;20.08;42.65;99822.94;131578;1254;107389;-78
2023/04/29 12:47:55;;;;;;;7.10;4.40;;;;;;;19.94;42.51;99824.98;131291;1253;107515;-79
2023/04/29 12:51:01;;;;;;;4.60;3.90;;;;;;;19.75;42.83;99815.98;131349;1253;107529;-78
2023/04/29 12:54:07;;;;;;;5.20;4.10;;;;;;;19.71;42.92;99818.74;131312;1252;107254;-79
2023/04/29 12:57:13;;;;;;;5.30;3.90;;;;;;;19.74;42.84;99815.16;131085;1251;107855;-79
2023/04/29 13:00:20;;;;;;;6.70;3.90;;;;;;;19.78;43.07;99813.31;131100;1253;107523;-79
2023/04/29 13:03:26;;;;;;;6.10;3.90;;;;;;;19.86;43.06;99812.81;131538;1252;107617;-78
2023/04/29 13:06:31;;;;;;;6.30;3.90;;;;;;;19.92;42.98;99813.80;131474;1253;107379;-80
2023/04/29 13:09:40;;;;;;;6.40;4.10;;;;;;;19.83;42.81;99806.02;131594;1254;106457;-80
2023/04/29 13:12:46;;;;;;;6.10;4.10;;;;;;;19.78;42.67;99805.38;131577;1253;107637;-80
2023/04/29 13:15:52;;;;;;;5.80;4.30;;;;;;;19.70;42.77;99806.30;131406;1254;106675;-78
2023/04/29 13:18:57;;;;;;;7.10;3.90;;;;;;;19.66;42.59;99805.02;131374;1248;107272;-77
2023/04/29 13:22:03;;;;;;;6.20;4.40;;;;;;;19.60;42.47;99807.89;131299;1253;106837;-76
2023/04/29 13:25:10;;;;;;;4.30;3.90;;;;;;;19.50;42.55;99805.57;131334;1253;107501;-76
2023/04/29 13:28:16;;;;;;;6.00;4.10;;;;;;;19.46;42.77;99804.27;131258;1263;107218;-76
2023/04/29 13:31:21;;;;;;;4.40;3.50;;;;;;;19.46;42.65;99806.20;131225;1254;107576;-76
2023/04/29 13:34:27;;;;;;;5.20;3.90;;;;;;;19.44;42.43;99803.88;131291;1256;107271;-76
2023/04/29 13:37:33;;;;;;;4.80;3.80;;;;;;;19.37;42.70;99807.98;131193;1253;105980;-77
2023/04/29 13:40:38;;;;;;;7.50;5.60;;;;;;;19.31;42.79;99808.98;131174;1261;106707;-76
2023/04/29 13:43:44;;;;;;;8.00;5.30;;;;;;;19.24;42.89;99813.59;131088;1253;108603;-76
2023/04/29 13:46:50;;;;;;;85.80;66.50;;;;;;;19.19;42.82;99814.54;131169;1251;107547;-75
2023/04/29 13:49:56;;;;;;;32.70;25.40;;;;;;;19.06;43.07;99814.23;131258;1254;106753;-77
2023/04/29 13:53:01;;;;;;;34.60;27.00;;;;;;;18.95;43.23;99816.55;131793;1254;107611;-76
2023/04/29 13:56:07;;;;;;;28.00;23.60;;;;;;;18.89;43.46;99816.63;131458;1253;107517;-76
2023/04/29 13:59:13;;;;;;;13.40;12.00;;;;;;;18.85;43.44;99818.28;131313;1258;107415;-76
2023/04/29 14:02:18;;;;;;;13.00;11.50;;;;;;;18.79;43.53;99816.00;131265;1257;106586;-76
2023/04/29 14:05:24;;;;;;;8.00;6.60;;;;;;;18.73;43.49;99817.00;131232;1253;107546;-78
2023/04/29 14:08:29;;;;;;;14.60;12.30;;;;;;;18.65;43.86;99818.55;131235;1248;106778;-76
2023/04/29 14:11:35;;;;;;;15.30;12.10;;;;;;;18.54;43.78;99813.44;131265;1262;107509;-75
2023/04/29 14:14:40;;;;;;;35.70;28.30;;;;;;;18.36;43.97;99811.08;131250;1253;107532;-75
2023/04/29 14:17:48;;;;;;;12.70;10.20;;;;;;;18.23;43.92;99812.55;131342;1253;106650;-77
2023/04/29 14:20:54;;;;;;;9.50;6.40;;;;;;;18.17;44.11;99813.06;131238;1253;108319;-77